createdAt,value
2023-02-12T00:01:51.502Z,100461.44
2023-02-12T00:07:32.731Z,100459.56
2023-02-12T00:13:03.488Z,100471.16
2023-02-12T00:18:27.522Z,100459.63
2023-02-12T00:23:53.504Z,100461.28
2023-02-12T00:29:44.499Z,100460.41
2023-02-12T00:35:09.518Z,100466.84
2023-02-12T00:40:35.796Z,100478.47
2023-02-12T00:46:06.655Z,100484.63
2023-02-12T00:51:30.883Z,100480.13
2023-02-12T00:56:55.526Z,100483.00
2023-02-12T01:03:33.390Z,100464.41
2023-02-12T01:08:34.521Z,100466.13
2023-02-12T01:14:05.986Z,100474.28
2023-02-12T01:19:34.668Z,100479.56
2023-02-12T01:25:03.693Z,100486.56
2023-02-12T01:30:30.526Z,100486.63
2023-02-12T01:36:02.755Z,100499.13
2023-02-12T01:41:33.876Z,100498.19
2023-02-12T01:47:00.529Z,100484.84
2023-02-12T01:52:34.331Z,100483.91
2023-02-12T01:58:04.768Z,100478.69
2023-02-12T02:03:29.679Z,100473.41
2023-02-12T02:09:04.713Z,100472.47
2023-02-12T02:14:43.061Z,100473.50
2023-02-12T02:20:31.572Z,100480.56
2023-02-12T02:26:28.666Z,100472.47
2023-02-12T02:32:01.701Z,100470.75
2023-02-12T02:37:32.619Z,100470.75
2023-02-12T02:43:02.564Z,100460.06
2023-02-12T02:48:38.560Z,100463.59
2023-02-12T02:54:23.142Z,100462.69
2023-02-12T02:59:57.287Z,100466.28
2023-02-12T03:05:40.962Z,100459.06
2023-02-12T03:11:16.234Z,100475.88
2023-02-12T03:22:32.568Z,100481.28
2023-02-12T03:28:01.618Z,100490.94
2023-02-12T03:33:32.609Z,100500.56
2023-02-12T03:39:05.630Z,100502.06
2023-02-12T03:44:43.600Z,100504.50
2023-02-12T03:50:18.876Z,100501.78
2023-02-12T03:55:51.788Z,100509.78
2023-02-12T04:01:16.707Z,100508.78
2023-02-12T04:06:41.632Z,100518.44
2023-02-12T04:12:23.624Z,100522.00
2023-02-12T04:17:58.664Z,100527.47
2023-02-12T04:23:30.628Z,100528.28
2023-02-12T04:29:07.587Z,100538.16
2023-02-12T04:34:39.676Z,100541.78
2023-02-12T04:40:07.602Z,100548.84
2023-02-12T04:45:39.653Z,100542.63
2023-02-12T04:51:04.717Z,100548.84
2023-02-12T04:56:29.629Z,100552.59
2023-02-12T05:01:57.629Z,100549.13
2023-02-12T05:07:28.722Z,100553.53
2023-02-12T05:12:53.838Z,100550.94
2023-02-12T05:18:20.644Z,100550.09
2023-02-12T05:23:47.663Z,100557.22
2023-02-12T05:29:12.660Z,100547.44
2023-02-12T05:34:40.642Z,100555.44
2023-02-12T05:40:05.805Z,100554.34
2023-02-12T05:45:34.907Z,100546.41
2023-02-12T05:51:02.667Z,100552.78
2023-02-12T05:56:31.697Z,100549.13
2023-02-12T06:01:59.724Z,100553.63
2023-02-12T06:07:33.666Z,100554.47
2023-02-12T06:13:03.677Z,100564.31
2023-02-12T06:18:27.648Z,100556.56
2023-02-12T06:23:56.677Z,100563.88
2023-02-12T06:29:20.698Z,100578.16
2023-02-12T06:34:45.659Z,100583.66
2023-02-12T06:40:12.659Z,100581.94
2023-02-12T06:45:37.652Z,100589.88
2023-02-12T06:51:01.683Z,100599.69
2023-02-12T06:56:30.712Z,100610.22
2023-02-12T07:01:55.692Z,100614.63
2023-02-12T07:07:28.872Z,100617.28
2023-02-12T07:12:56.659Z,100620.13
2023-02-12T07:18:20.667Z,100633.53
2023-02-12T07:23:52.685Z,100638.06
2023-02-12T07:29:20.681Z,100643.38
2023-02-12T07:34:48.821Z,100641.50
2023-02-12T07:40:14.737Z,100652.09
2023-02-12T07:45:41.769Z,100658.47
2023-02-12T07:51:06.702Z,100660.03
2023-02-12T07:56:37.720Z,100660.75
2023-02-12T08:02:07.762Z,100663.25
2023-02-12T08:07:38.737Z,100662.22
2023-02-12T08:13:03.732Z,100670.13
2023-02-12T08:18:30.920Z,100668.97
2023-02-12T08:23:57.736Z,100668.75
2023-02-12T08:29:25.700Z,100676.47
2023-02-12T08:34:53.708Z,100684.34
2023-02-12T08:40:19.977Z,100683.19
2023-02-12T08:45:44.731Z,100690.91
2023-02-12T08:51:11.727Z,100692.50
2023-02-12T08:56:38.726Z,100702.13
2023-02-12T09:02:06.796Z,100706.47
2023-02-12T09:07:34.761Z,100703.56
2023-02-12T09:12:59.713Z,100708.69
2023-02-12T09:18:24.770Z,100708.47
2023-02-12T09:23:52.783Z,100718.00
2023-02-12T09:29:17.783Z,100715.28
2023-02-12T09:34:41.748Z,100723.22
2023-02-12T09:40:09.726Z,100728.66
2023-02-12T09:45:36.755Z,100737.47
2023-02-12T09:51:04.745Z,100749.13
2023-02-12T09:56:33.767Z,100741.88
2023-02-12T10:01:58.772Z,100753.38
2023-02-12T10:07:56.752Z,100759.50
2023-02-12T10:13:35.783Z,100755.91
2023-02-12T10:19:29.756Z,100766.16
2023-02-12T10:25:06.822Z,100764.16
2023-02-12T10:30:39.839Z,100775.56
2023-02-12T10:36:11.764Z,100771.75
2023-02-12T10:41:47.779Z,100768.94
2023-02-12T10:47:15.804Z,100781.88
2023-02-12T10:52:50.775Z,100779.19
2023-02-12T10:58:29.814Z,100771.88
2023-02-12T11:04:03.793Z,100773.38
2023-02-12T11:09:38.761Z,100762.81
2023-02-12T11:15:08.804Z,100759.06
2023-02-12T11:20:38.815Z,100757.81
2023-02-12T11:26:11.900Z,100756.72
2023-02-12T11:31:38.844Z,100749.41
2023-02-12T11:37:07.831Z,100749.16
2023-02-12T11:42:35.803Z,100743.66
2023-02-12T11:47:59.891Z,100740.69
2023-02-12T11:53:34.907Z,100748.41
2023-02-12T11:59:03.125Z,100745.31
2023-02-12T12:04:32.916Z,100746.03
2023-02-12T12:10:04.824Z,100737.84
2023-02-12T12:15:46.807Z,100736.72
2023-02-12T12:21:16.857Z,100735.00
2023-02-12T12:26:44.865Z,100733.97
2023-02-12T12:32:16.012Z,100729.47
2023-02-12T12:37:50.945Z,100732.78
2023-02-12T12:43:29.810Z,100722.78
2023-02-12T12:49:22.845Z,100707.88
2023-02-12T12:55:02.821Z,100698.66
2023-02-12T13:00:44.933Z,100691.25
2023-02-12T13:06:30.055Z,100682.88
2023-02-12T13:12:07.861Z,100672.69
2023-02-12T13:17:42.861Z,100655.94
2023-02-12T13:23:13.862Z,100643.84
2023-02-12T13:28:47.872Z,100637.16
2023-02-12T13:34:20.949Z,100624.44
2023-02-12T13:39:50.894Z,100622.22
2023-02-12T13:45:30.854Z,100612.19
2023-02-12T13:51:07.896Z,100593.41
2023-02-12T13:56:43.884Z,100567.97
2023-02-12T14:02:10.896Z,100562.97
2023-02-12T14:07:57.883Z,100563.97
2023-02-12T14:13:27.851Z,100568.50
2023-02-12T14:18:53.875Z,100573.84
2023-02-12T14:24:58.862Z,100571.34
2023-02-12T14:30:50.011Z,100562.75
2023-02-12T14:36:27.904Z,100559.22
2023-02-12T14:41:53.857Z,100559.50
2023-02-12T14:47:40.910Z,100567.53
2023-02-12T14:53:10.928Z,100566.84
2023-02-12T14:58:39.940Z,100569.78
2023-02-12T15:04:14.874Z,100566.16
2023-02-12T15:09:45.915Z,100568.25
2023-02-12T15:15:19.906Z,100561.94
2023-02-12T15:20:53.931Z,100560.97
2023-02-12T15:26:19.893Z,100559.94
2023-02-12T15:31:45.043Z,100568.81
2023-02-12T15:37:15.070Z,100560.78
2023-02-12T15:42:41.926Z,100559.06
2023-02-12T15:48:26.907Z,100560.03
2023-02-12T15:53:54.916Z,100565.38
2023-02-12T15:59:19.928Z,100568.91
2023-02-12T16:04:48.928Z,100565.38
2023-02-12T16:10:18.107Z,100564.59
2023-02-12T16:15:45.953Z,100564.78
2023-02-12T16:21:19.962Z,100566.66
2023-02-12T16:26:47.959Z,100564.16
2023-02-12T16:32:13.917Z,100570.47
2023-02-12T16:37:52.953Z,100581.38
2023-02-12T16:43:39.957Z,100586.81
2023-02-12T16:49:06.950Z,100595.72
2023-02-12T16:54:44.948Z,100593.13
2023-02-12T17:00:15.001Z,100605.81
2023-02-12T17:05:40.970Z,100605.03
2023-02-12T17:11:08.264Z,100607.81
2023-02-12T17:16:38.966Z,100609.66
2023-02-12T17:22:04.979Z,100624.00
2023-02-12T17:27:29.958Z,100625.78
2023-02-12T17:32:59.993Z,100611.69
2023-02-12T17:38:26.344Z,100615.47
2023-02-12T17:43:50.982Z,100621.88
2023-02-12T17:49:19.984Z,100614.09
2023-02-12T17:54:45.965Z,100609.50
2023-02-12T18:00:09.999Z,100609.56
2023-02-12T18:05:38.005Z,100603.59
2023-02-12T18:11:03.018Z,100608.31
2023-02-12T18:16:29.219Z,100612.34
2023-02-12T18:21:56.977Z,100624.25
2023-02-12T18:27:23.023Z,100621.09
2023-02-12T18:32:48.015Z,100635.91
2023-02-12T18:38:16.025Z,100629.31
2023-02-12T18:43:44.071Z,100643.06
2023-02-12T18:49:10.046Z,100637.88
2023-02-12T18:54:37.036Z,100645.16
2023-02-12T19:00:02.054Z,100643.38
2023-02-12T19:05:33.016Z,100648.78
2023-02-12T19:11:02.056Z,100644.44
2023-02-12T19:16:30.055Z,100644.69
2023-02-12T19:21:56.018Z,100647.28
2023-02-12T19:27:25.197Z,100646.47
2023-02-12T19:32:50.052Z,100660.16
2023-02-12T19:38:14.238Z,100669.22
2023-02-12T19:43:42.035Z,100672.03
2023-02-12T19:49:11.031Z,100671.38
2023-02-12T19:54:36.043Z,100665.25
2023-02-12T20:00:03.045Z,100659.97
2023-02-12T20:05:28.025Z,100653.78
2023-02-12T20:10:55.453Z,100649.50
2023-02-12T20:16:25.254Z,100657.66
2023-02-12T20:21:51.090Z,100654.19
2023-02-12T20:27:18.054Z,100658.19
2023-02-12T20:32:46.052Z,100665.25
2023-02-12T20:43:31.082Z,100659.03
2023-02-12T20:49:01.056Z,100649.03
2023-02-12T20:54:27.077Z,100647.31
2023-02-12T20:59:52.063Z,100644.00
2023-02-12T21:05:21.113Z,100644.00
2023-02-12T21:10:46.066Z,100641.09
2023-02-12T21:16:20.177Z,100640.53
2023-02-12T21:21:51.110Z,100641.56
2023-02-12T21:27:16.239Z,100643.28
2023-02-12T21:32:41.087Z,100635.31
2023-02-12T21:38:08.048Z,100626.81
2023-02-12T21:43:44.786Z,100623.22
2023-02-12T21:49:10.071Z,100626.69
2023-02-12T21:54:39.204Z,100630.13
2023-02-12T22:00:03.100Z,100622.97
2023-02-12T22:05:42.130Z,100620.22
2023-02-12T22:11:17.055Z,100617.72
2023-02-12T22:16:42.220Z,100606.84
2023-02-12T22:22:07.092Z,100610.47
2023-02-12T22:27:35.094Z,100613.94
2023-02-12T22:33:00.337Z,100612.06
2023-02-12T22:38:26.099Z,100622.91
2023-02-12T22:43:55.100Z,100624.63
2023-02-12T22:49:21.095Z,100621.97
2023-02-12T22:54:46.096Z,100603.56
2023-02-12T23:00:15.102Z,100616.13
2023-02-12T23:06:15.096Z,100621.63
2023-02-12T23:11:43.154Z,100624.44
2023-02-12T23:17:15.104Z,100628.84
2023-02-12T23:22:40.135Z,100622.63
2023-02-12T23:28:04.188Z,100620.06
2023-02-12T23:33:32.112Z,100609.50
2023-02-12T23:38:57.153Z,100605.00
2023-02-12T23:44:23.129Z,100603.50
2023-02-12T23:49:50.179Z,100607.91
2023-02-12T23:55:16.150Z,100603.59
